Stevensville, MI

6:01 PM EDT on July 21, 2017 (GMT -0400)
| | Change Station
Active Advisory: Severe Thunderstorm Watch

Elev -9999 ft 0.00 °N, 0.00 °E | Updated 13 minutes ago

Clear
Clear
°F
Feels Like °F
N
Wind Variable Wind from North
Gusts mph

Today
High -- | Low -- °F
--% Chance of Precip.
Yesterday
High -- | Low -- °F
Precip. -- in
Pressure 29.94 in
Visibility 10.0 miles
Clouds Clear
Dew Point Not available.
Humidity Not available.
Rainfall --
Snow Depth Not available.
6:29 AM 9:15 PM
Waning Crescent, 3% visible
METAR KBEH 212153Z AUTO 32003KT 10SM CLR 27/21 A2995 RMK AO2 SLP139 T02720206
Pressure 29.94 in
Visibility 10.0 miles
Clouds Clear
Dew Point Not available.
Humidity Not available.
Rainfall --
Snow Depth Not available.
6:29 AM 9:15 PM
Waning Crescent, 3% visible
METAR KBEH 212153Z AUTO 32003KT 10SM CLR 27/21 A2995 RMK AO2 SLP139 T02720206

Get Your Daily Forecast Email!

Thanks for signing up!

Be on the lookout for a verification email in your inbox.

You'll start receiving severe weather alerts in your inbox..

×

10-Day Weather Forecast

Almanac

Astronomy

Jul. 21, 2017 Rise Set
Actual Time
Civil Twilight
Nautical Twilight
Astronomical Twilight
Moon
Length of Visible Light
Length of Day
Tomorrow will be .
, % of the Moon is Illuminated

Today's Extremes

State Highs State Lows

Community

WunderPhotos

Category 6

Welcome to Category 6. This is the collective home for Weather Underground's featured writeups by Dr. Jeff Masters (right), Bob Henson (left), Chris Burt, and other regular contributors.

Nearby

Air Quality

  Air Quality AQ Index Pollutant
Not available.

Snow Depth

Station Depth Elevation

Earthquake Activity

City Distance Mag. Time & Date
Minimum magnitude displayed is 2.5.

Coastal Water Temperatures

Place Temperature

Stations

Nearby Weather Stations

Station Location Temp. Windchill Dew Point Humidity Wind Precip. Elev Updated Type
                   

Watches & Warnings

Severe Thunderstorm Watch
Issued: 5:57 PM EDT Jul. 21, 2017 – National Weather Service


The National Weather Service has issued Severe Thunderstorm Watch
429 in effect until 1 am EDT /midnight CDT/ Saturday for the
following areas

In Indiana this watch includes 8 counties

In northern Indiana

Cass in Fulton in La Porte
Marshall Pulaski St. Joseph in
Starke white

In Michigan this watch includes 1 County

In southwest Michigan

Berrien

This includes the cities of Akron, Bass Lake, Benton Harbor,
Benton Heights, Bremen, Brookston, Buchanan, Culver, Fair Plain,
Francesville, Knox, La Porte, Logansport, Medaryville,
Michigan City, Mishawaka, Monon, Monticello, New Carlisle, Niles,
North Judson, Paw Paw Lake, Plymouth, Rochester, Royal Center,
South Bend, St. Joseph, Walkerton, and Winamac.